sensor_id;sensor_type;location;lat;lon;timestamp;pressure;altitude;pressure_sealevel;temperature;humidity
75775;BME280;64505;51.458;7.556;2023-04-21T00:02:00;99595.72;;;7.58;87.67
75775;BME280;64505;51.458;7.556;2023-04-21T00:04:01;99592.25;;;7.64;87.21
75775;BME280;64505;51.458;7.556;2023-04-21T00:06:04;99594.28;;;7.62;86.88
75775;BME280;64505;51.458;7.556;2023-04-21T00:08:09;99587.22;;;7.62;86.92
75775;BME280;64505;51.458;7.556;2023-04-21T00:10:11;99587.78;;;7.64;87.06
75775;BME280;64505;51.458;7.556;2023-04-21T00:12:12;99590.00;;;7.67;87.06
75775;BME280;64505;51.458;7.556;2023-04-21T00:14:13;99582.94;;;7.68;88.00
75775;BME280;64505;51.458;7.556;2023-04-21T00:16:15;99583.75;;;7.68;86.99
75775;BME280;64505;51.458;7.556;2023-04-21T00:18:17;99583.53;;;7.70;88.33
75775;BME280;64505;51.458;7.556;2023-04-21T00:20:18;99579.28;;;7.69;87.54
75775;BME280;64505;51.458;7.556;2023-04-21T00:22:20;99575.66;;;7.70;88.24
75775;BME280;64505;51.458;7.556;2023-04-21T00:24:22;99575.22;;;7.73;87.98
75775;BME280;64505;51.458;7.556;2023-04-21T00:26:23;99576.25;;;7.72;88.15
75775;BME280;64505;51.458;7.556;2023-04-21T00:28:25;99569.16;;;7.72;87.50
75775;BME280;64505;51.458;7.556;2023-04-21T00:30:26;99567.34;;;7.73;87.37
75775;BME280;64505;51.458;7.556;2023-04-21T00:32:28;99559.22;;;7.74;87.82
75775;BME280;64505;51.458;7.556;2023-04-21T00:34:29;99560.25;;;7.73;89.34
75775;BME280;64505;51.458;7.556;2023-04-21T00:36:30;99563.47;;;7.75;88.59
75775;BME280;64505;51.458;7.556;2023-04-21T00:38:32;99555.19;;;7.72;87.48
75775;BME280;64505;51.458;7.556;2023-04-21T00:40:33;99560.25;;;7.73;88.08
75775;BME280;64505;51.458;7.556;2023-04-21T00:42:35;99558.63;;;7.72;87.56
75775;BME280;64505;51.458;7.556;2023-04-21T00:44:36;99560.66;;;7.70;88.23
75775;BME280;64505;51.458;7.556;2023-04-21T00:46:38;99558.44;;;7.74;88.33
75775;BME280;64505;51.458;7.556;2023-04-21T00:48:39;99557.63;;;7.73;87.98
75775;BME280;64505;51.458;7.556;2023-04-21T00:50:42;99553.16;;;7.74;88.65
75775;BME280;64505;51.458;7.556;2023-04-21T00:52:44;99560.44;;;7.72;88.12
75775;BME280;64505;51.458;7.556;2023-04-21T00:54:47;99559.44;;;7.73;87.55
75775;BME280;64505;51.458;7.556;2023-04-21T00:56:48;99551.53;;;7.73;88.46
75775;BME280;64505;51.458;7.556;2023-04-21T00:58:51;99558.22;;;7.75;88.05
75775;BME280;64505;51.458;7.556;2023-04-21T01:00:53;99556.38;;;7.76;87.37
75775;BME280;64505;51.458;7.556;2023-04-21T01:02:54;99550.31;;;7.75;88.04
75775;BME280;64505;51.458;7.556;2023-04-21T01:04:56;99552.13;;;7.75;88.62
75775;BME280;64505;51.458;7.556;2023-04-21T01:06:58;99563.69;;;7.74;88.25
75775;BME280;64505;51.458;7.556;2023-04-21T01:09:00;99559.44;;;7.73;88.29
75775;BME280;64505;51.458;7.556;2023-04-21T01:11:09;99558.00;;;7.77;89.10
75775;BME280;64505;51.458;7.556;2023-04-21T01:13:11;99559.84;;;7.76;88.83
75775;BME280;64505;51.458;7.556;2023-04-21T01:15:14;99554.34;;;7.78;88.15
75775;BME280;64505;51.458;7.556;2023-04-21T01:17:16;99568.31;;;7.78;88.08
75775;BME280;64505;51.458;7.556;2023-04-21T01:19:19;99554.34;;;7.78;88.38
75775;BME280;64505;51.458;7.556;2023-04-21T01:21:21;99555.97;;;7.79;88.86
75775;BME280;64505;51.458;7.556;2023-04-21T01:23:23;99561.22;;;7.79;88.89
75775;BME280;64505;51.458;7.556;2023-04-21T01:25:24;99556.59;;;7.81;88.97
75775;BME280;64505;51.458;7.556;2023-04-21T01:27:28;99550.69;;;7.79;88.61
75775;BME280;64505;51.458;7.556;2023-04-21T01:29:33;99544.03;;;7.76;88.76
75775;BME280;64505;51.458;7.556;2023-04-21T01:31:35;99547.47;;;7.77;89.21
75775;BME280;64505;51.458;7.556;2023-04-21T01:33:36;99548.28;;;7.77;88.76
75775;BME280;64505;51.458;7.556;2023-04-21T01:35:38;99542.22;;;7.77;89.23
75775;BME280;64505;51.458;7.556;2023-04-21T01:37:40;99557.78;;;7.78;88.62
75775;BME280;64505;51.458;7.556;2023-04-21T01:39:45;99551.72;;;7.78;88.69
75775;BME280;64505;51.458;7.556;2023-04-21T01:41:47;99552.75;;;7.77;88.59
75775;BME280;64505;51.458;7.556;2023-04-21T01:43:48;99550.31;;;7.75;88.24
75775;BME280;64505;51.458;7.556;2023-04-21T01:45:51;99546.66;;;7.76;88.22
75775;BME280;64505;51.458;7.556;2023-04-21T01:47:52;99553.16;;;7.74;88.54
75775;BME280;64505;51.458;7.556;2023-04-21T01:49:54;99550.31;;;7.75;88.58
75775;BME280;64505;51.458;7.556;2023-04-21T01:51:55;99530.25;;;7.74;89.02
75775;BME280;64505;51.458;7.556;2023-04-21T01:53:57;99521.59;;;7.74;89.33
75775;BME280;64505;51.458;7.556;2023-04-21T01:55:58;99528.47;;;7.68;89.62
75775;BME280;64505;51.458;7.556;2023-04-21T01:57:59;99525.66;;;7.63;90.38
75775;BME280;64505;51.458;7.556;2023-04-21T02:00:02;99526.25;;;7.65;89.76
75775;BME280;64505;51.458;7.556;2023-04-21T02:02:04;99531.09;;;7.68;90.20
75775;BME280;64505;51.458;7.556;2023-04-21T02:04:05;99539.41;;;7.72;89.15
75775;BME280;64505;51.458;7.556;2023-04-21T02:06:07;99535.38;;;7.63;90.34
75775;BME280;64505;51.458;7.556;2023-04-21T02:08:08;99535.56;;;7.68;90.10
75775;BME280;64505;51.458;7.556;2023-04-21T02:10:11;99537.78;;;7.71;89.31
75775;BME280;64505;51.458;7.556;2023-04-21T02:12:12;99542.03;;;7.72;89.22
75775;BME280;64505;51.458;7.556;2023-04-21T02:14:18;99535.13;;;7.71;89.14
75775;BME280;64505;51.458;7.556;2023-04-21T02:16:20;99535.38;;;7.69;89.43
75775;BME280;64505;51.458;7.556;2023-04-21T02:18:26;99542.25;;;7.64;90.38
75775;BME280;64505;51.458;7.556;2023-04-21T02:20:29;99550.94;;;7.71;88.93
75775;BME280;64505;51.458;7.556;2023-04-21T02:22:31;99556.41;;;7.69;89.23
75775;BME280;64505;51.458;7.556;2023-04-21T02:24:33;99555.19;;;7.72;88.79
75775;BME280;64505;51.458;7.556;2023-04-21T02:26:34;99541.22;;;7.71;90.64
75775;BME280;64505;51.458;7.556;2023-04-21T02:28:36;99530.69;;;7.71;90.72
75775;BME280;64505;51.458;7.556;2023-04-21T02:30:37;99522.19;;;7.69;90.57
75775;BME280;64505;51.458;7.556;2023-04-21T02:32:41;99512.25;;;7.71;90.52
75775;BME280;64505;51.458;7.556;2023-04-21T02:34:43;99511.06;;;7.67;90.88
75775;BME280;64505;51.458;7.556;2023-04-21T02:36:44;99509.66;;;7.65;91.00
75775;BME280;64505;51.458;7.556;2023-04-21T02:38:46;99522.81;;;7.65;90.85
75775;BME280;64505;51.458;7.556;2023-04-21T02:40:47;99525.44;;;7.65;90.24
75775;BME280;64505;51.458;7.556;2023-04-21T02:42:50;99532.13;;;7.67;90.75
75775;BME280;64505;51.458;7.556;2023-04-21T02:44:52;99534.75;;;7.67;91.59
75775;BME280;64505;51.458;7.556;2023-04-21T02:46:53;99519.38;;;7.64;90.77
75775;BME280;64505;51.458;7.556;2023-04-21T02:48:55;99481.59;;;7.46;93.09
75775;BME280;64505;51.458;7.556;2023-04-21T02:50:56;99510.91;;;7.49;93.16
75775;BME280;64505;51.458;7.556;2023-04-21T02:52:58;99532.78;;;7.50;93.31
75775;BME280;64505;51.458;7.556;2023-04-21T02:54:59;99549.78;;;7.54;92.64
75775;BME280;64505;51.458;7.556;2023-04-21T02:57:00;99544.09;;;7.57;91.15
75775;BME280;64505;51.458;7.556;2023-04-21T02:59:02;99527.50;;;7.56;92.29
75775;BME280;64505;51.458;7.556;2023-04-21T03:01:04;99509.88;;;7.57;90.85
75775;BME280;64505;51.458;7.556;2023-04-21T03:03:05;99520.00;;;7.60;90.74
75775;BME280;64505;51.458;7.556;2023-04-21T03:05:08;99521.03;;;7.59;89.92
75775;BME280;64505;51.458;7.556;2023-04-21T03:07:11;99535.00;;;7.59;90.52
75775;BME280;64505;51.458;7.556;2023-04-21T03:09:13;99527.88;;;7.60;90.99
75775;BME280;64505;51.458;7.556;2023-04-21T03:11:14;99533.16;;;7.60;90.21
75775;BME280;64505;51.458;7.556;2023-04-21T03:13:16;99528.69;;;7.60;91.13
75775;BME280;64505;51.458;7.556;2023-04-21T03:15:17;99522.44;;;7.61;90.70
75775;BME280;64505;51.458;7.556;2023-04-21T03:17:19;99540.84;;;7.61;90.57
75775;BME280;64505;51.458;7.556;2023-04-21T03:19:21;99535.16;;;7.64;90.58
75775;BME280;64505;51.458;7.556;2023-04-21T03:21:22;99528.91;;;7.65;90.72
75775;BME280;64505;51.458;7.556;2023-04-21T03:23:24;99536.38;;;7.68;91.04
75775;BME280;64505;51.458;7.556;2023-04-21T03:25:25;99540.63;;;7.69;90.90
75775;BME280;64505;51.458;7.556;2023-04-21T03:27:30;99527.66;;;7.68;90.73
75775;BME280;64505;51.458;7.556;2023-04-21T03:29:31;99528.91;;;7.65;90.83
75775;BME280;64505;51.458;7.556;2023-04-21T03:31:32;99524.63;;;7.64;90.37
75775;BME280;64505;51.458;7.556;2023-04-21T03:33:34;99530.53;;;7.66;91.51
75775;BME280;64505;51.458;7.556;2023-04-21T03:35:35;99530.53;;;7.66;91.71
75775;BME280;64505;51.458;7.556;2023-04-21T03:37:37;99530.09;;;7.69;91.41
75775;BME280;64505;51.458;7.556;2023-04-21T03:39:38;99527.25;;;7.71;91.19
75775;BME280;64505;51.458;7.556;2023-04-21T03:41:40;99524.84;;;7.69;91.38
75775;BME280;64505;51.458;7.556;2023-04-21T03:43:41;99529.28;;;7.69;91.20
75775;BME280;64505;51.458;7.556;2023-04-21T03:45:43;99536.78;;;7.65;91.19
75775;BME280;64505;51.458;7.556;2023-04-21T03:47:44;99530.28;;;7.68;91.18
75775;BME280;64505;51.458;7.556;2023-04-21T03:49:46;99527.47;;;7.69;90.48
75775;BME280;64505;51.458;7.556;2023-04-21T03:51:47;99536.16;;;7.70;91.04
75775;BME280;64505;51.458;7.556;2023-04-21T03:53:49;99534.94;;;7.72;91.16
75775;BME280;64505;51.458;7.556;2023-04-21T03:55:50;99534.94;;;7.72;90.50
75775;BME280;64505;51.458;7.556;2023-04-21T03:57:52;99531.06;;;7.75;90.77
75775;BME280;64505;51.458;7.556;2023-04-21T03:59:53;99528.25;;;7.76;91.38
75775;BME280;64505;51.458;7.556;2023-04-21T04:01:55;99522.75;;;7.78;91.21
75775;BME280;64505;51.458;7.556;2023-04-21T04:03:56;99523.38;;;7.80;90.90
75775;BME280;64505;51.458;7.556;2023-04-21T04:05:58;99530.03;;;7.82;90.73
75775;BME280;64505;51.458;7.556;2023-04-21T04:07:59;99533.47;;;7.83;91.00
75775;BME280;64505;51.458;7.556;2023-04-21T04:10:01;99533.06;;;7.86;91.23
75775;BME280;64505;51.458;7.556;2023-04-21T04:12:02;99523.34;;;7.86;91.63
75775;BME280;64505;51.458;7.556;2023-04-21T04:14:04;99518.88;;;7.87;92.00
75775;BME280;64505;51.458;7.556;2023-04-21T04:16:06;99516.06;;;7.88;90.96
75775;BME280;64505;51.458;7.556;2023-04-21T04:18:07;99522.09;;;7.89;91.12
75775;BME280;64505;51.458;7.556;2023-04-21T04:20:09;99521.72;;;7.92;91.43
75775;BME280;64505;51.458;7.556;2023-04-21T04:22:10;99521.47;;;7.93;90.30
75775;BME280;64505;51.458;7.556;2023-04-21T04:24:12;99510.94;;;7.93;90.78
75775;BME280;64505;51.458;7.556;2023-04-21T04:26:14;99514.41;;;7.94;90.58
75775;BME280;64505;51.458;7.556;2023-04-21T04:28:16;99512.56;;;7.95;91.54
75775;BME280;64505;51.458;7.556;2023-04-21T04:30:17;99517.59;;;7.96;91.73
75775;BME280;64505;51.458;7.556;2023-04-21T04:32:19;99527.13;;;7.97;91.83
75775;BME280;64505;51.458;7.556;2023-04-21T04:34:21;99527.13;;;7.97;90.93
75775;BME280;64505;51.458;7.556;2023-04-21T04:36:23;99541.31;;;7.96;91.01
75775;BME280;64505;51.458;7.556;2023-04-21T04:38:25;99537.47;;;7.99;91.16
75775;BME280;64505;51.458;7.556;2023-04-21T04:40:28;99532.78;;;8.01;90.74
75775;BME280;64505;51.458;7.556;2023-04-21T04:42:31;99525.69;;;8.01;91.13
75775;BME280;64505;51.458;7.556;2023-04-21T04:44:33;99533.16;;;8.04;91.74
75775;BME280;64505;51.458;7.556;2023-04-21T04:46:34;99534.56;;;8.07;91.28
75775;BME280;64505;51.458;7.556;2023-04-21T04:48:36;99527.91;;;8.04;92.25
75775;BME280;64505;51.458;7.556;2023-04-21T04:50:37;99520.63;;;8.06;91.29
75775;BME280;64505;51.458;7.556;2023-04-21T04:52:38;99520.41;;;8.08;90.70
75775;BME280;64505;51.458;7.556;2023-04-21T04:54:40;99526.47;;;8.08;90.76
75775;BME280;64505;51.458;7.556;2023-04-21T04:56:42;99524.03;;;8.07;90.96
75775;BME280;64505;51.458;7.556;2023-04-21T04:58:43;99514.31;;;8.07;92.14
75775;BME280;64505;51.458;7.556;2023-04-21T05:00:46;99525.66;;;8.08;91.03
75775;BME280;64505;51.458;7.556;2023-04-21T05:02:48;99533.56;;;8.08;91.82
75775;BME280;64505;51.458;7.556;2023-04-21T05:04:50;99528.09;;;8.09;90.87
75775;BME280;64505;51.458;7.556;2023-04-21T05:06:51;99526.03;;;8.11;91.47
75775;BME280;64505;51.458;7.556;2023-04-21T05:08:52;99528.69;;;8.11;91.50
75775;BME280;64505;51.458;7.556;2023-04-21T05:10:54;99525.03;;;8.12;91.21
75775;BME280;64505;51.458;7.556;2023-04-21T05:12:55;99533.31;;;8.16;91.16
75775;BME280;64505;51.458;7.556;2023-04-21T05:14:57;99522.78;;;8.16;92.14
75775;BME280;64505;51.458;7.556;2023-04-21T05:16:58;99533.50;;;8.21;91.45
75775;BME280;64505;51.458;7.556;2023-04-21T05:19:01;99527.00;;;8.23;91.63
75775;BME280;64505;51.458;7.556;2023-04-21T05:21:02;99517.03;;;8.25;91.91
75775;BME280;64505;51.458;7.556;2023-04-21T05:23:04;99519.28;;;8.28;91.82
75775;BME280;64505;51.458;7.556;2023-04-21T05:25:06;99523.94;;;8.33;91.64
75775;BME280;64505;51.458;7.556;2023-04-21T05:27:08;99524.31;;;8.36;90.62
75775;BME280;64505;51.458;7.556;2023-04-21T05:29:09;99520.66;;;8.37;92.17
75775;BME280;64505;51.458;7.556;2023-04-21T05:31:11;99527.31;;;8.40;92.26
75775;BME280;64505;51.458;7.556;2023-04-21T05:33:12;99529.75;;;8.42;91.65
75775;BME280;64505;51.458;7.556;2023-04-21T05:35:14;99529.75;;;8.42;92.62
75775;BME280;64505;51.458;7.556;2023-04-21T05:37:15;99530.56;;;8.42;91.91
75775;BME280;64505;51.458;7.556;2023-04-21T05:39:17;99535.41;;;8.45;92.03
75775;BME280;64505;51.458;7.556;2023-04-21T05:41:18;99534.16;;;8.48;91.50
75775;BME280;64505;51.458;7.556;2023-04-21T05:43:20;99539.63;;;8.53;91.27
75775;BME280;64505;51.458;7.556;2023-04-21T05:45:21;99541.63;;;8.51;91.45
75775;BME280;64505;51.458;7.556;2023-04-21T05:47:22;99547.53;;;8.53;91.91
75775;BME280;64505;51.458;7.556;2023-04-21T05:49:24;99544.66;;;8.54;91.79
75775;BME280;64505;51.458;7.556;2023-04-21T05:51:25;99547.66;;;8.58;91.30
75775;BME280;64505;51.458;7.556;2023-04-21T05:53:27;99547.47;;;8.59;91.21
75775;BME280;64505;51.458;7.556;2023-04-21T05:55:29;99546.22;;;8.62;91.29
75775;BME280;64505;51.458;7.556;2023-04-21T05:57:30;99553.31;;;8.68;90.89
75775;BME280;64505;51.458;7.556;2023-04-21T05:59:31;99544.72;;;8.72;91.41
75775;BME280;64505;51.458;7.556;2023-04-21T06:01:33;99541.25;;;8.78;90.98
75775;BME280;64505;51.458;7.556;2023-04-21T06:03:35;99532.47;;;8.84;91.09
75775;BME280;64505;51.458;7.556;2023-04-21T06:05:36;99534.47;;;8.89;90.82
75775;BME280;64505;51.458;7.556;2023-04-21T06:07:38;99533.97;;;8.99;90.40
75775;BME280;64505;51.458;7.556;2023-04-21T06:09:39;99533.34;;;9.03;90.33
75775;BME280;64505;51.458;7.556;2023-04-21T06:11:41;99542.44;;;9.07;90.56
75775;BME280;64505;51.458;7.556;2023-04-21T06:13:43;99542.81;;;9.11;90.16
75775;BME280;64505;51.458;7.556;2023-04-21T06:15:44;99537.09;;;9.14;90.23
75775;BME280;64505;51.458;7.556;2023-04-21T06:17:46;99533.44;;;9.15;91.77
75775;BME280;64505;51.458;7.556;2023-04-21T06:19:47;99527.09;;;9.16;91.33
75775;BME280;64505;51.458;7.556;2023-04-21T06:21:55;99520.19;;;9.21;89.84
75775;BME280;64505;51.458;7.556;2023-04-21T06:23:57;99525.22;;;9.23;90.85
75775;BME280;64505;51.458;7.556;2023-04-21T06:26:03;99526.75;;;9.30;90.57
75775;BME280;64505;51.458;7.556;2023-04-21T06:28:05;99523.84;;;9.38;89.54
75775;BME280;64505;51.458;7.556;2023-04-21T06:30:07;99525.22;;;9.41;90.76
75775;BME280;64505;51.458;7.556;2023-04-21T06:32:12;99526.19;;;9.47;90.11
75775;BME280;64505;51.458;7.556;2023-04-21T06:34:13;99527.00;;;9.47;89.82
75775;BME280;64505;51.458;7.556;2023-04-21T06:36:15;99528.13;;;9.58;88.87
75775;BME280;64505;51.458;7.556;2023-04-21T06:38:18;99530.50;;;9.59;88.96
75775;BME280;64505;51.458;7.556;2023-04-21T06:40:20;99530.06;;;9.62;88.65
75775;BME280;64505;51.458;7.556;2023-04-21T06:42:21;99531.84;;;9.68;88.68
75775;BME280;64505;51.458;7.556;2023-04-21T06:44:23;99527.94;;;9.71;88.80
75775;BME280;64505;51.458;7.556;2023-04-21T06:46:24;99525.47;;;9.76;88.17
75775;BME280;64505;51.458;7.556;2023-04-21T06:48:26;99525.50;;;9.87;87.48
75775;BME280;64505;51.458;7.556;2023-04-21T06:50:28;99521.47;;;9.85;87.84
75775;BME280;64505;51.458;7.556;2023-04-21T06:52:29;99534.19;;;9.95;87.67
75775;BME280;64505;51.458;7.556;2023-04-21T06:54:30;99536.84;;;10.06;87.46
75775;BME280;64505;51.458;7.556;2023-04-21T06:56:32;99534.34;;;10.11;87.37
75775;BME280;64505;51.458;7.556;2023-04-21T06:58:34;99534.75;;;10.15;87.98
75775;BME280;64505;51.458;7.556;2023-04-21T07:00:36;99536.63;;;10.26;87.70
75775;BME280;64505;51.458;7.556;2023-04-21T07:02:37;99542.84;;;10.31;87.27
75775;BME280;64505;51.458;7.556;2023-04-21T07:04:39;99536.66;;;10.38;86.88
75775;BME280;64505;51.458;7.556;2023-04-21T07:06:40;99535.84;;;10.37;86.80
75775;BME280;64505;51.458;7.556;2023-04-21T07:08:43;99533.78;;;10.39;87.37
75775;BME280;64505;51.458;7.556;2023-04-21T07:10:45;99537.91;;;10.35;87.77
75775;BME280;64505;51.458;7.556;2023-04-21T07:12:46;99522.31;;;10.45;87.45
75775;BME280;64505;51.458;7.556;2023-04-21T07:14:47;99529.97;;;10.35;88.19
75775;BME280;64505;51.458;7.556;2023-04-21T07:16:49;99529.53;;;10.38;87.47
75775;BME280;64505;51.458;7.556;2023-04-21T07:18:50;99525.09;;;10.50;86.85
75775;BME280;64505;51.458;7.556;2023-04-21T07:20:52;99529.03;;;10.59;86.91
75775;BME280;64505;51.458;7.556;2023-04-21T07:22:53;99528.31;;;10.64;86.64
75775;BME280;64505;51.458;7.556;2023-04-21T07:24:55;99513.50;;;10.63;85.87
75775;BME280;64505;51.458;7.556;2023-04-21T07:26:56;99512.81;;;10.56;87.34
75775;BME280;64505;51.458;7.556;2023-04-21T07:28:58;99522.69;;;10.60;86.91
75775;BME280;64505;51.458;7.556;2023-04-21T07:30:59;99525.25;;;10.67;86.43
75775;BME280;64505;51.458;7.556;2023-04-21T07:33:03;99530.63;;;10.49;86.68
75775;BME280;64505;51.458;7.556;2023-04-21T07:35:05;99532.38;;;10.66;86.87
75775;BME280;64505;51.458;7.556;2023-04-21T07:37:07;99527.78;;;10.73;86.13
75775;BME280;64505;51.458;7.556;2023-04-21T07:39:08;99526.13;;;10.61;86.88
75775;BME280;64505;51.458;7.556;2023-04-21T07:41:11;99527.09;;;10.66;86.04
75775;BME280;64505;51.458;7.556;2023-04-21T07:43:12;99530.63;;;10.60;86.92
75775;BME280;64505;51.458;7.556;2023-04-21T07:45:14;99527.28;;;10.65;86.43
75775;BME280;64505;51.458;7.556;2023-04-21T07:47:15;99532.03;;;10.63;86.30
75775;BME280;64505;51.458;7.556;2023-04-21T07:49:17;99526.72;;;10.74;86.42
75775;BME280;64505;51.458;7.556;2023-04-21T07:51:18;99531.91;;;10.69;86.76
75775;BME280;64505;51.458;7.556;2023-04-21T07:53:20;99522.38;;;10.80;85.97
75775;BME280;64505;51.458;7.556;2023-04-21T07:55:21;99532.03;;;10.86;86.17
75775;BME280;64505;51.458;7.556;2023-04-21T07:57:23;99528.25;;;10.94;85.29
75775;BME280;64505;51.458;7.556;2023-04-21T07:59:25;99527.31;;;11.00;85.26
75775;BME280;64505;51.458;7.556;2023-04-21T08:01:26;99523.91;;;10.99;85.18
75775;BME280;64505;51.458;7.556;2023-04-21T08:03:28;99519.63;;;10.98;85.61
75775;BME280;64505;51.458;7.556;2023-04-21T08:05:30;99518.38;;;11.12;84.78
75775;BME280;64505;51.458;7.556;2023-04-21T08:07:36;99521.16;;;11.17;85.39
75775;BME280;64505;51.458;7.556;2023-04-21T08:09:38;99526.88;;;11.26;84.91
75775;BME280;64505;51.458;7.556;2023-04-21T08:11:39;99518.84;;;11.21;83.90
75775;BME280;64505;51.458;7.556;2023-04-21T08:13:41;99528.72;;;11.25;85.15
75775;BME280;64505;51.458;7.556;2023-04-21T08:15:42;99522.25;;;11.33;84.90
75775;BME280;64505;51.458;7.556;2023-04-21T08:17:44;99519.38;;;11.46;84.27
75775;BME280;64505;51.458;7.556;2023-04-21T08:19:46;99525.72;;;11.45;83.78
75775;BME280;64505;51.458;7.556;2023-04-21T08:21:47;99525.84;;;11.39;83.40
75775;BME280;64505;51.458;7.556;2023-04-21T08:23:48;99531.13;;;11.50;84.39
75775;BME280;64505;51.458;7.556;2023-04-21T08:25:51;99532.25;;;11.54;83.95
75775;BME280;64505;51.458;7.556;2023-04-21T08:27:52;99526.53;;;11.46;84.53
75775;BME280;64505;51.458;7.556;2023-04-21T08:29:54;99525.91;;;11.55;83.67
75775;BME280;64505;51.458;7.556;2023-04-21T08:31:55;99531.22;;;11.44;83.35
75775;BME280;64505;51.458;7.556;2023-04-21T08:33:57;99533.31;;;11.53;83.66
75775;BME280;64505;51.458;7.556;2023-04-21T08:36:03;99532.38;;;11.48;83.14
75775;BME280;64505;51.458;7.556;2023-04-21T08:38:18;99534.44;;;11.57;84.06
75775;BME280;64505;51.458;7.556;2023-04-21T08:40:20;99527.06;;;11.59;83.41
75775;BME280;64505;51.458;7.556;2023-04-21T08:42:21;99537.09;;;11.57;84.39
75775;BME280;64505;51.458;7.556;2023-04-21T08:44:22;99546.63;;;11.58;85.05
75775;BME280;64505;51.458;7.556;2023-04-21T08:46:26;99545.47;;;11.54;84.31
75775;BME280;64505;51.458;7.556;2023-04-21T08:48:28;99548.13;;;11.54;83.91
75775;BME280;64505;51.458;7.556;2023-04-21T08:50:31;99552.88;;;11.52;84.86
75775;BME280;64505;51.458;7.556;2023-04-21T08:52:34;99551.59;;;11.55;83.90
75775;BME280;64505;51.458;7.556;2023-04-21T08:54:35;99557.13;;;11.53;84.23
75775;BME280;64505;51.458;7.556;2023-04-21T08:56:38;99548.03;;;11.61;84.58
75775;BME280;64505;51.458;7.556;2023-04-21T08:58:39;99547.91;;;11.67;84.15
75775;BME280;64505;51.458;7.556;2023-04-21T09:00:41;99549.88;;;11.72;84.11
75775;BME280;64505;51.458;7.556;2023-04-21T09:02:57;99540.63;;;11.86;83.51
75775;BME280;64505;51.458;7.556;2023-04-21T09:05:02;99544.75;;;11.94;82.91
75775;BME280;64505;51.458;7.556;2023-04-21T09:07:04;99539.78;;;11.97;82.92
75775;BME280;64505;51.458;7.556;2023-04-21T09:09:06;99536.97;;;12.15;82.41
75775;BME280;64505;51.458;7.556;2023-04-21T09:11:12;99537.84;;;12.21;82.68
75775;BME280;64505;51.458;7.556;2023-04-21T09:13:16;99534.69;;;12.07;82.40
75775;BME280;64505;51.458;7.556;2023-04-21T09:15:20;99544.09;;;12.15;81.76
75775;BME280;64505;51.458;7.556;2023-04-21T09:17:27;99536.06;;;12.10;82.51
75775;BME280;64505;51.458;7.556;2023-04-21T09:19:33;99530.44;;;12.23;82.35
75775;BME280;64505;51.458;7.556;2023-04-21T09:21:34;99533.53;;;12.31;82.42
75775;BME280;64505;51.458;7.556;2023-04-21T09:23:49;99532.66;;;12.26;82.46
75775;BME280;64505;51.458;7.556;2023-04-21T09:25:53;99537.16;;;12.25;81.39
75775;BME280;64505;51.458;7.556;2023-04-21T09:27:54;99531.06;;;12.42;81.94
75775;BME280;64505;51.458;7.556;2023-04-21T09:30:04;99542.91;;;12.51;81.26
75775;BME280;64505;51.458;7.556;2023-04-21T09:32:10;99536.63;;;12.57;81.28
75775;BME280;64505;51.458;7.556;2023-04-21T09:34:20;99540.97;;;12.63;81.56
75775;BME280;64505;51.458;7.556;2023-04-21T09:36:23;99543.50;;;12.69;81.53
75775;BME280;64505;51.458;7.556;2023-04-21T09:38:25;99530.69;;;12.66;81.70
75775;BME280;64505;51.458;7.556;2023-04-21T09:40:28;99537.94;;;12.71;81.04
75775;BME280;64505;51.458;7.556;2023-04-21T09:42:31;99538.50;;;12.73;80.79
75775;BME280;64505;51.458;7.556;2023-04-21T09:44:34;99545.56;;;12.67;81.25
75775;BME280;64505;51.458;7.556;2023-04-21T09:47:02;99529.81;;;12.61;81.12
75775;BME280;64505;51.458;7.556;2023-04-21T09:49:04;99527.09;;;12.72;80.84
75775;BME280;64505;51.458;7.556;2023-04-21T09:51:07;99523.63;;;12.72;79.90
75775;BME280;64505;51.458;7.556;2023-04-21T09:53:14;99529.47;;;12.74;81.72
75775;BME280;64505;51.458;7.556;2023-04-21T09:55:19;99524.59;;;12.66;81.52
75775;BME280;64505;51.458;7.556;2023-04-21T09:57:26;99526.28;;;12.72;81.29
75775;BME280;64505;51.458;7.556;2023-04-21T09:59:34;99522.91;;;12.76;80.85
75775;BME280;64505;51.458;7.556;2023-04-21T10:01:35;99515.47;;;12.95;80.68
75775;BME280;64505;51.458;7.556;2023-04-21T10:03:40;99513.31;;;13.09;80.44
75775;BME280;64505;51.458;7.556;2023-04-21T10:05:42;99518.41;;;13.27;79.91
75775;BME280;64505;51.458;7.556;2023-04-21T10:07:44;99524.00;;;13.30;79.51
75775;BME280;64505;51.458;7.556;2023-04-21T10:09:50;99510.59;;;13.42;78.79
75775;BME280;64505;51.458;7.556;2023-04-21T10:11:54;99513.72;;;13.56;79.25
75775;BME280;64505;51.458;7.556;2023-04-21T10:13:57;99501.69;;;13.70;78.19
75775;BME280;64505;51.458;7.556;2023-04-21T10:20:16;99510.31;;;14.30;77.00
75775;BME280;64505;51.458;7.556;2023-04-21T10:22:29;99507.31;;;14.49;75.93
75775;BME280;64505;51.458;7.556;2023-04-21T10:24:36;99502.94;;;14.64;74.44
75775;BME280;64505;51.458;7.556;2023-04-21T10:26:38;99509.00;;;14.60;73.78
75775;BME280;64505;51.458;7.556;2023-04-21T10:30:41;99501.84;;;14.97;73.70
75775;BME280;64505;51.458;7.556;2023-04-21T10:32:43;99503.59;;;15.18;74.03
75775;BME280;64505;51.458;7.556;2023-04-21T10:34:45;99513.66;;;15.11;71.71
75775;BME280;64505;51.458;7.556;2023-04-21T10:36:49;99516.28;;;15.06;72.52
75775;BME280;64505;51.458;7.556;2023-04-21T10:38:54;99513.56;;;14.96;72.43
75775;BME280;64505;51.458;7.556;2023-04-21T10:41:35;99511.75;;;14.70;74.37
75775;BME280;64505;51.458;7.556;2023-04-21T10:43:43;99509.84;;;14.65;73.49
75775;BME280;64505;51.458;7.556;2023-04-21T10:45:50;99506.06;;;14.61;72.76
75775;BME280;64505;51.458;7.556;2023-04-21T10:47:52;99506.81;;;14.52;74.32
75775;BME280;64505;51.458;7.556;2023-04-21T10:49:57;99495.91;;;14.53;74.90
75775;BME280;64505;51.458;7.556;2023-04-21T10:54:04;99487.72;;;14.33;74.35
75775;BME280;64505;51.458;7.556;2023-04-21T10:56:06;99493.63;;;14.35;75.09
75775;BME280;64505;51.458;7.556;2023-04-21T10:58:08;99493.25;;;14.26;74.36
75775;BME280;64505;51.458;7.556;2023-04-21T11:00:15;99484.44;;;14.21;74.58
75775;BME280;64505;51.458;7.556;2023-04-21T11:02:17;99495.88;;;14.21;74.08
75775;BME280;64505;51.458;7.556;2023-04-21T11:04:20;99491.63;;;14.25;73.50